sensor_id;sensor_type;location;lat;lon;timestamp;P1;durP1;ratioP1;P2;durP2;ratioP2
27670;SDS011;15077;49.704;9.908;2022-12-11T00:01:26;13.32;;;8.55;;
27670;SDS011;15077;49.704;9.908;2022-12-11T00:03:52;14.85;;;8.23;;
27670;SDS011;15077;49.704;9.908;2022-12-11T00:06:19;11.85;;;7.25;;
27670;SDS011;15077;49.704;9.908;2022-12-11T00:08:51;13.82;;;8.25;;
27670;SDS011;15077;49.704;9.908;2022-12-11T00:11:20;11.73;;;7.30;;
27670;SDS011;15077;49.704;9.908;2022-12-11T00:13:48;12.68;;;8.35;;
27670;SDS011;15077;49.704;9.908;2022-12-11T00:16:14;14.48;;;8.68;;
27670;SDS011;15077;49.704;9.908;2022-12-11T00:18:40;12.20;;;7.35;;
27670;SDS011;15077;49.704;9.908;2022-12-11T00:21:07;11.57;;;7.10;;
27670;SDS011;15077;49.704;9.908;2022-12-11T00:23:37;11.98;;;8.18;;
27670;SDS011;15077;49.704;9.908;2022-12-11T00:26:08;11.85;;;7.53;;
27670;SDS011;15077;49.704;9.908;2022-12-11T00:28:39;13.27;;;7.97;;
27670;SDS011;15077;49.704;9.908;2022-12-11T00:31:09;12.32;;;7.60;;
27670;SDS011;15077;49.704;9.908;2022-12-11T00:33:41;13.05;;;8.70;;
27670;SDS011;15077;49.704;9.908;2022-12-11T00:36:13;12.82;;;7.20;;
27670;SDS011;15077;49.704;9.908;2022-12-11T00:38:44;11.77;;;6.95;;
27670;SDS011;15077;49.704;9.908;2022-12-11T00:41:16;12.07;;;6.93;;
27670;SDS011;15077;49.704;9.908;2022-12-11T00:43:45;11.25;;;6.25;;
27670;SDS011;15077;49.704;9.908;2022-12-11T00:46:12;10.43;;;5.70;;
27670;SDS011;15077;49.704;9.908;2022-12-11T00:48:39;10.60;;;6.93;;
27670;SDS011;15077;49.704;9.908;2022-12-11T00:51:10;11.20;;;6.93;;
27670;SDS011;15077;49.704;9.908;2022-12-11T00:53:37;9.90;;;5.90;;
27670;SDS011;15077;49.704;9.908;2022-12-11T00:56:13;10.65;;;7.03;;
27670;SDS011;15077;49.704;9.908;2022-12-11T00:58:44;12.10;;;6.47;;
27670;SDS011;15077;49.704;9.908;2022-12-11T01:01:14;10.40;;;6.40;;
27670;SDS011;15077;49.704;9.908;2022-12-11T01:03:43;9.40;;;6.35;;
27670;SDS011;15077;49.704;9.908;2022-12-11T01:06:16;11.90;;;7.90;;
27670;SDS011;15077;49.704;9.908;2022-12-11T01:08:46;15.43;;;9.55;;
27670;SDS011;15077;49.704;9.908;2022-12-11T01:11:13;16.55;;;10.23;;
27670;SDS011;15077;49.704;9.908;2022-12-11T01:13:41;13.95;;;8.80;;
27670;SDS011;15077;49.704;9.908;2022-12-11T01:16:11;13.80;;;7.47;;
27670;SDS011;15077;49.704;9.908;2022-12-11T01:18:40;12.00;;;7.22;;
27670;SDS011;15077;49.704;9.908;2022-12-11T01:21:09;11.57;;;6.97;;
27670;SDS011;15077;49.704;9.908;2022-12-11T01:23:38;12.10;;;6.90;;
27670;SDS011;15077;49.704;9.908;2022-12-11T01:26:12;12.07;;;6.70;;
27670;SDS011;15077;49.704;9.908;2022-12-11T01:28:39;11.25;;;6.97;;
27670;SDS011;15077;49.704;9.908;2022-12-11T01:31:10;9.73;;;6.40;;
27670;SDS011;15077;49.704;9.908;2022-12-11T01:33:39;9.10;;;5.97;;
27670;SDS011;15077;49.704;9.908;2022-12-11T01:36:15;10.13;;;6.55;;
27670;SDS011;15077;49.704;9.908;2022-12-11T01:38:49;8.45;;;5.40;;
27670;SDS011;15077;49.704;9.908;2022-12-11T01:41:16;10.68;;;5.80;;
27670;SDS011;15077;49.704;9.908;2022-12-11T01:46:40;8.60;;;5.57;;
27670;SDS011;15077;49.704;9.908;2022-12-11T01:49:08;10.73;;;6.25;;
27670;SDS011;15077;49.704;9.908;2022-12-11T01:54:42;8.73;;;5.45;;
27670;SDS011;15077;49.704;9.908;2022-12-11T01:57:09;10.10;;;5.75;;
27670;SDS011;15077;49.704;9.908;2022-12-11T01:59:40;9.50;;;6.05;;
27670;SDS011;15077;49.704;9.908;2022-12-11T02:04:44;9.05;;;5.40;;
27670;SDS011;15077;49.704;9.908;2022-12-11T02:07:12;8.30;;;4.85;;
27670;SDS011;15077;49.704;9.908;2022-12-11T02:09:39;8.18;;;5.03;;
27670;SDS011;15077;49.704;9.908;2022-12-11T02:14:58;8.90;;;4.93;;
27670;SDS011;15077;49.704;9.908;2022-12-11T02:20:14;9.27;;;5.47;;
27670;SDS011;15077;49.704;9.908;2022-12-11T02:28:47;9.90;;;5.97;;
27670;SDS011;15077;49.704;9.908;2022-12-11T02:34:24;9.93;;;6.32;;
27670;SDS011;15077;49.704;9.908;2022-12-11T02:37:02;11.60;;;6.78;;
27670;SDS011;15077;49.704;9.908;2022-12-11T02:39:34;10.43;;;5.47;;
27670;SDS011;15077;49.704;9.908;2022-12-11T02:42:06;12.15;;;7.55;;
27670;SDS011;15077;49.704;9.908;2022-12-11T02:44:35;12.50;;;7.75;;
27670;SDS011;15077;49.704;9.908;2022-12-11T02:47:03;10.82;;;6.90;;
27670;SDS011;15077;49.704;9.908;2022-12-11T02:49:32;9.20;;;6.43;;
27670;SDS011;15077;49.704;9.908;2022-12-11T02:51:59;12.48;;;8.00;;
27670;SDS011;15077;49.704;9.908;2022-12-11T02:54:31;10.85;;;6.85;;
27670;SDS011;15077;49.704;9.908;2022-12-11T02:57:03;12.50;;;7.50;;
27670;SDS011;15077;49.704;9.908;2022-12-11T02:59:37;11.85;;;7.50;;
27670;SDS011;15077;49.704;9.908;2022-12-11T03:02:07;11.15;;;7.07;;
27670;SDS011;15077;49.704;9.908;2022-12-11T03:04:34;14.90;;;8.23;;
27670;SDS011;15077;49.704;9.908;2022-12-11T03:07:02;14.07;;;7.97;;
27670;SDS011;15077;49.704;9.908;2022-12-11T03:09:46;10.82;;;7.22;;
27670;SDS011;15077;49.704;9.908;2022-12-11T03:12:34;10.45;;;6.50;;
27670;SDS011;15077;49.704;9.908;2022-12-11T03:15:03;12.45;;;8.02;;
27670;SDS011;15077;49.704;9.908;2022-12-11T03:20:42;14.82;;;8.48;;
27670;SDS011;15077;49.704;9.908;2022-12-11T03:23:19;9.48;;;6.00;;
27670;SDS011;15077;49.704;9.908;2022-12-11T03:26:03;9.93;;;6.03;;
27670;SDS011;15077;49.704;9.908;2022-12-11T03:31:10;9.18;;;5.75;;
27670;SDS011;15077;49.704;9.908;2022-12-11T03:33:45;9.68;;;5.95;;
27670;SDS011;15077;49.704;9.908;2022-12-11T03:36:19;8.98;;;5.53;;
27670;SDS011;15077;49.704;9.908;2022-12-11T03:38:55;8.05;;;5.30;;
27670;SDS011;15077;49.704;9.908;2022-12-11T03:41:31;9.63;;;6.00;;
27670;SDS011;15077;49.704;9.908;2022-12-11T03:44:00;12.68;;;7.43;;
27670;SDS011;15077;49.704;9.908;2022-12-11T03:46:31;11.80;;;6.93;;
27670;SDS011;15077;49.704;9.908;2022-12-11T03:49:02;11.75;;;7.38;;
27670;SDS011;15077;49.704;9.908;2022-12-11T03:51:34;10.63;;;6.40;;
27670;SDS011;15077;49.704;9.908;2022-12-11T03:54:02;8.45;;;4.82;;
27670;SDS011;15077;49.704;9.908;2022-12-11T03:56:28;9.02;;;5.00;;
27670;SDS011;15077;49.704;9.908;2022-12-11T03:58:58;8.48;;;5.03;;
27670;SDS011;15077;49.704;9.908;2022-12-11T04:01:23;9.55;;;6.07;;
27670;SDS011;15077;49.704;9.908;2022-12-11T04:03:49;9.82;;;5.90;;
27670;SDS011;15077;49.704;9.908;2022-12-11T04:06:15;9.93;;;5.53;;
27670;SDS011;15077;49.704;9.908;2022-12-11T04:08:41;9.70;;;5.95;;
27670;SDS011;15077;49.704;9.908;2022-12-11T04:11:06;10.38;;;6.18;;
27670;SDS011;15077;49.704;9.908;2022-12-11T04:13:51;8.75;;;6.10;;
27670;SDS011;15077;49.704;9.908;2022-12-11T04:16:35;8.50;;;5.35;;
27670;SDS011;15077;49.704;9.908;2022-12-11T04:19:01;11.60;;;6.32;;
27670;SDS011;15077;49.704;9.908;2022-12-11T04:21:46;11.43;;;7.07;;
27670;SDS011;15077;49.704;9.908;2022-12-11T04:24:30;13.20;;;6.80;;
27670;SDS011;15077;49.704;9.908;2022-12-11T04:26:56;11.52;;;6.82;;
27670;SDS011;15077;49.704;9.908;2022-12-11T04:29:22;10.20;;;6.05;;
27670;SDS011;15077;49.704;9.908;2022-12-11T04:31:48;8.90;;;6.15;;
27670;SDS011;15077;49.704;9.908;2022-12-11T04:34:14;10.30;;;6.10;;
27670;SDS011;15077;49.704;9.908;2022-12-11T04:36:41;12.40;;;6.70;;
27670;SDS011;15077;49.704;9.908;2022-12-11T04:39:07;9.18;;;5.93;;
27670;SDS011;15077;49.704;9.908;2022-12-11T04:41:33;11.13;;;6.72;;
27670;SDS011;15077;49.704;9.908;2022-12-11T04:43:59;11.15;;;7.05;;
27670;SDS011;15077;49.704;9.908;2022-12-11T04:46:25;11.70;;;6.78;;
27670;SDS011;15077;49.704;9.908;2022-12-11T04:48:51;12.05;;;7.00;;
27670;SDS011;15077;49.704;9.908;2022-12-11T04:51:18;11.40;;;6.20;;
27670;SDS011;15077;49.704;9.908;2022-12-11T04:53:44;10.25;;;5.85;;
27670;SDS011;15077;49.704;9.908;2022-12-11T04:56:11;15.10;;;7.55;;
27670;SDS011;15077;49.704;9.908;2022-12-11T04:58:39;12.38;;;7.05;;
27670;SDS011;15077;49.704;9.908;2022-12-11T05:01:11;9.05;;;5.88;;
27670;SDS011;15077;49.704;9.908;2022-12-11T05:03:43;13.75;;;7.53;;
27670;SDS011;15077;49.704;9.908;2022-12-11T05:06:09;12.60;;;7.93;;
27670;SDS011;15077;49.704;9.908;2022-12-11T05:08:36;14.57;;;7.47;;
27670;SDS011;15077;49.704;9.908;2022-12-11T05:11:05;11.55;;;7.00;;
27670;SDS011;15077;49.704;9.908;2022-12-11T05:13:34;8.93;;;5.88;;
27670;SDS011;15077;49.704;9.908;2022-12-11T05:16:02;9.15;;;5.78;;
27670;SDS011;15077;49.704;9.908;2022-12-11T05:18:30;8.50;;;5.70;;
27670;SDS011;15077;49.704;9.908;2022-12-11T05:20:57;10.30;;;6.65;;
27670;SDS011;15077;49.704;9.908;2022-12-11T05:23:29;9.55;;;6.55;;
27670;SDS011;15077;49.704;9.908;2022-12-11T05:25:59;11.38;;;7.30;;
27670;SDS011;15077;49.704;9.908;2022-12-11T05:28:31;13.07;;;7.60;;
27670;SDS011;15077;49.704;9.908;2022-12-11T05:31:02;12.75;;;7.57;;
27670;SDS011;15077;49.704;9.908;2022-12-11T05:33:31;12.27;;;8.02;;
27670;SDS011;15077;49.704;9.908;2022-12-11T05:35:58;14.63;;;8.43;;
27670;SDS011;15077;49.704;9.908;2022-12-11T05:38:24;13.73;;;8.45;;
27670;SDS011;15077;49.704;9.908;2022-12-11T05:41:01;15.13;;;8.38;;
27670;SDS011;15077;49.704;9.908;2022-12-11T05:43:31;12.65;;;7.55;;
27670;SDS011;15077;49.704;9.908;2022-12-11T05:46:10;11.63;;;6.90;;
27670;SDS011;15077;49.704;9.908;2022-12-11T05:48:55;14.00;;;8.25;;
27670;SDS011;15077;49.704;9.908;2022-12-11T05:51:23;12.60;;;8.13;;
27670;SDS011;15077;49.704;9.908;2022-12-11T05:53:50;11.70;;;7.70;;
27670;SDS011;15077;49.704;9.908;2022-12-11T05:56:18;13.65;;;7.88;;
27670;SDS011;15077;49.704;9.908;2022-12-11T05:58:50;12.20;;;7.38;;
27670;SDS011;15077;49.704;9.908;2022-12-11T06:01:39;14.25;;;9.18;;
27670;SDS011;15077;49.704;9.908;2022-12-11T06:04:06;13.50;;;8.10;;
27670;SDS011;15077;49.704;9.908;2022-12-11T06:06:35;15.93;;;9.30;;
27670;SDS011;15077;49.704;9.908;2022-12-11T06:09:01;12.68;;;8.10;;
27670;SDS011;15077;49.704;9.908;2022-12-11T06:11:29;16.67;;;10.30;;
27670;SDS011;15077;49.704;9.908;2022-12-11T06:13:58;15.63;;;10.05;;
27670;SDS011;15077;49.704;9.908;2022-12-11T06:16:26;12.25;;;7.72;;
27670;SDS011;15077;49.704;9.908;2022-12-11T06:18:52;11.63;;;7.70;;
27670;SDS011;15077;49.704;9.908;2022-12-11T06:21:22;12.70;;;7.22;;
27670;SDS011;15077;49.704;9.908;2022-12-11T06:23:59;13.65;;;8.30;;
27670;SDS011;15077;49.704;9.908;2022-12-11T06:26:27;12.65;;;8.63;;
27670;SDS011;15077;49.704;9.908;2022-12-11T06:28:55;11.88;;;7.75;;
27670;SDS011;15077;49.704;9.908;2022-12-11T06:31:21;14.82;;;9.55;;
27670;SDS011;15077;49.704;9.908;2022-12-11T06:33:47;12.52;;;7.40;;
27670;SDS011;15077;49.704;9.908;2022-12-11T06:36:14;16.98;;;9.93;;
27670;SDS011;15077;49.704;9.908;2022-12-11T06:38:44;14.50;;;8.75;;
27670;SDS011;15077;49.704;9.908;2022-12-11T06:41:11;13.98;;;7.63;;
27670;SDS011;15077;49.704;9.908;2022-12-11T06:43:39;12.70;;;8.32;;
27670;SDS011;15077;49.704;9.908;2022-12-11T06:46:08;11.05;;;6.35;;
27670;SDS011;15077;49.704;9.908;2022-12-11T06:48:36;10.90;;;5.65;;
27670;SDS011;15077;49.704;9.908;2022-12-11T06:51:06;7.68;;;5.13;;
27670;SDS011;15077;49.704;9.908;2022-12-11T06:53:38;10.85;;;6.68;;
27670;SDS011;15077;49.704;9.908;2022-12-11T06:56:05;10.82;;;7.13;;
27670;SDS011;15077;49.704;9.908;2022-12-11T06:58:38;7.18;;;4.72;;
27670;SDS011;15077;49.704;9.908;2022-12-11T07:01:19;7.18;;;4.38;;
27670;SDS011;15077;49.704;9.908;2022-12-11T07:03:48;9.40;;;4.70;;
27670;SDS011;15077;49.704;9.908;2022-12-11T07:06:17;8.68;;;6.03;;
27670;SDS011;15077;49.704;9.908;2022-12-11T07:08:42;10.77;;;7.55;;
27670;SDS011;15077;49.704;9.908;2022-12-11T07:11:10;11.27;;;7.40;;
27670;SDS011;15077;49.704;9.908;2022-12-11T07:13:39;14.20;;;9.25;;
27670;SDS011;15077;49.704;9.908;2022-12-11T07:16:09;13.45;;;8.80;;
27670;SDS011;15077;49.704;9.908;2022-12-11T07:18:37;12.30;;;8.30;;
27670;SDS011;15077;49.704;9.908;2022-12-11T07:21:06;12.63;;;6.75;;
27670;SDS011;15077;49.704;9.908;2022-12-11T07:23:33;11.18;;;6.90;;
27670;SDS011;15077;49.704;9.908;2022-12-11T07:26:04;8.75;;;5.95;;
27670;SDS011;15077;49.704;9.908;2022-12-11T07:28:32;10.02;;;5.80;;
27670;SDS011;15077;49.704;9.908;2022-12-11T07:30:59;21.10;;;11.68;;
27670;SDS011;15077;49.704;9.908;2022-12-11T07:33:30;17.33;;;10.77;;
27670;SDS011;15077;49.704;9.908;2022-12-11T07:35:59;15.13;;;10.52;;
27670;SDS011;15077;49.704;9.908;2022-12-11T07:38:29;17.38;;;11.38;;
27670;SDS011;15077;49.704;9.908;2022-12-11T07:40:55;15.88;;;10.15;;
27670;SDS011;15077;49.704;9.908;2022-12-11T07:43:25;15.63;;;9.55;;
27670;SDS011;15077;49.704;9.908;2022-12-11T07:45:51;11.52;;;7.63;;
27670;SDS011;15077;49.704;9.908;2022-12-11T07:48:17;12.95;;;8.75;;
27670;SDS011;15077;49.704;9.908;2022-12-11T07:50:43;13.25;;;8.30;;
27670;SDS011;15077;49.704;9.908;2022-12-11T07:53:08;13.80;;;8.35;;
27670;SDS011;15077;49.704;9.908;2022-12-11T07:55:35;12.77;;;7.97;;
27670;SDS011;15077;49.704;9.908;2022-12-11T07:58:00;11.70;;;6.43;;
27670;SDS011;15077;49.704;9.908;2022-12-11T08:00:26;10.32;;;5.78;;
27670;SDS011;15077;49.704;9.908;2022-12-11T08:02:52;12.05;;;7.22;;
27670;SDS011;15077;49.704;9.908;2022-12-11T08:05:36;12.07;;;6.25;;
27670;SDS011;15077;49.704;9.908;2022-12-11T08:08:02;7.75;;;5.82;;
27670;SDS011;15077;49.704;9.908;2022-12-11T08:10:28;10.38;;;6.32;;
27670;SDS011;15077;49.704;9.908;2022-12-11T08:12:53;13.50;;;8.45;;
27670;SDS011;15077;49.704;9.908;2022-12-11T08:15:19;13.63;;;7.80;;
27670;SDS011;15077;49.704;9.908;2022-12-11T08:17:45;13.93;;;7.70;;
27670;SDS011;15077;49.704;9.908;2022-12-11T08:20:10;18.42;;;9.32;;
27670;SDS011;15077;49.704;9.908;2022-12-11T08:22:36;13.93;;;8.38;;
27670;SDS011;15077;49.704;9.908;2022-12-11T08:25:02;11.10;;;7.05;;
27670;SDS011;15077;49.704;9.908;2022-12-11T08:27:28;11.40;;;6.45;;
27670;SDS011;15077;49.704;9.908;2022-12-11T08:29:54;10.82;;;6.18;;
27670;SDS011;15077;49.704;9.908;2022-12-11T08:32:20;10.60;;;6.47;;
27670;SDS011;15077;49.704;9.908;2022-12-11T08:34:45;9.25;;;6.28;;
27670;SDS011;15077;49.704;9.908;2022-12-11T08:37:11;10.98;;;6.03;;
27670;SDS011;15077;49.704;9.908;2022-12-11T08:39:37;8.82;;;4.97;;
27670;SDS011;15077;49.704;9.908;2022-12-11T08:42:03;10.27;;;5.85;;
27670;SDS011;15077;49.704;9.908;2022-12-11T08:44:29;9.25;;;6.60;;
27670;SDS011;15077;49.704;9.908;2022-12-11T08:46:55;10.93;;;6.47;;
27670;SDS011;15077;49.704;9.908;2022-12-11T08:49:23;11.25;;;6.68;;
27670;SDS011;15077;49.704;9.908;2022-12-11T08:51:50;12.70;;;7.80;;
27670;SDS011;15077;49.704;9.908;2022-12-11T08:54:16;11.27;;;7.03;;
27670;SDS011;15077;49.704;9.908;2022-12-11T08:56:44;13.18;;;7.68;;
27670;SDS011;15077;49.704;9.908;2022-12-11T08:59:12;8.90;;;5.60;;
27670;SDS011;15077;49.704;9.908;2022-12-11T09:01:40;8.85;;;6.07;;
27670;SDS011;15077;49.704;9.908;2022-12-11T09:04:06;9.13;;;5.38;;
27670;SDS011;15077;49.704;9.908;2022-12-11T09:06:33;11.38;;;5.85;;
27670;SDS011;15077;49.704;9.908;2022-12-11T09:09:00;10.48;;;6.00;;
27670;SDS011;15077;49.704;9.908;2022-12-11T09:11:27;9.77;;;6.22;;
27670;SDS011;15077;49.704;9.908;2022-12-11T09:13:57;11.77;;;6.47;;
27670;SDS011;15077;49.704;9.908;2022-12-11T09:16:25;9.32;;;5.75;;
27670;SDS011;15077;49.704;9.908;2022-12-11T09:18:54;8.05;;;5.45;;
27670;SDS011;15077;49.704;9.908;2022-12-11T09:21:24;8.60;;;5.68;;
27670;SDS011;15077;49.704;9.908;2022-12-11T09:23:53;9.10;;;5.65;;
27670;SDS011;15077;49.704;9.908;2022-12-11T09:26:23;8.50;;;5.22;;
27670;SDS011;15077;49.704;9.908;2022-12-11T09:28:54;10.52;;;6.40;;
27670;SDS011;15077;49.704;9.908;2022-12-11T09:31:27;12.82;;;8.25;;
27670;SDS011;15077;49.704;9.908;2022-12-11T09:33:57;12.85;;;7.45;;
27670;SDS011;15077;49.704;9.908;2022-12-11T09:36:31;9.70;;;5.60;;
27670;SDS011;15077;49.704;9.908;2022-12-11T09:39:00;10.45;;;6.57;;
27670;SDS011;15077;49.704;9.908;2022-12-11T09:41:39;8.10;;;5.15;;
27670;SDS011;15077;49.704;9.908;2022-12-11T09:44:37;7.28;;;4.88;;
27670;SDS011;15077;49.704;9.908;2022-12-11T09:47:23;8.80;;;4.78;;
27670;SDS011;15077;49.704;9.908;2022-12-11T09:53:01;10.15;;;6.47;;
27670;SDS011;15077;49.704;9.908;2022-12-11T09:56:12;7.55;;;4.43;;
27670;SDS011;15077;49.704;9.908;2022-12-11T10:01:33;10.02;;;5.95;;
27670;SDS011;15077;49.704;9.908;2022-12-11T10:07:47;8.70;;;5.05;;
27670;SDS011;15077;49.704;9.908;2022-12-11T10:10:21;12.48;;;6.30;;
27670;SDS011;15077;49.704;9.908;2022-12-11T10:13:16;13.05;;;7.13;;
27670;SDS011;15077;49.704;9.908;2022-12-11T10:16:24;12.07;;;6.60;;
27670;SDS011;15077;49.704;9.908;2022-12-11T10:19:19;11.77;;;6.90;;
27670;SDS011;15077;49.704;9.908;2022-12-11T10:21:52;10.57;;;6.22;;
27670;SDS011;15077;49.704;9.908;2022-12-11T10:24:24;14.05;;;8.05;;
27670;SDS011;15077;49.704;9.908;2022-12-11T10:27:16;13.93;;;9.27;;
27670;SDS011;15077;49.704;9.908;2022-12-11T10:29:47;14.18;;;9.82;;
27670;SDS011;15077;49.704;9.908;2022-12-11T10:32:42;16.25;;;9.55;;
27670;SDS011;15077;49.704;9.908;2022-12-11T10:35:34;17.48;;;9.50;;
27670;SDS011;15077;49.704;9.908;2022-12-11T10:48:54;13.52;;;8.30;;
27670;SDS011;15077;49.704;9.908;2022-12-11T10:54:24;15.18;;;7.20;;
27670;SDS011;15077;49.704;9.908;2022-12-11T10:57:02;12.80;;;8.68;;
27670;SDS011;15077;49.704;9.908;2022-12-11T10:59:34;14.85;;;9.50;;
27670;SDS011;15077;49.704;9.908;2022-12-11T11:02:25;13.73;;;8.88;;
27670;SDS011;15077;49.704;9.908;2022-12-11T11:05:15;14.95;;;9.45;;
27670;SDS011;15077;49.704;9.908;2022-12-11T11:08:17;12.23;;;7.20;;
27670;SDS011;15077;49.704;9.908;2022-12-11T11:13:24;10.60;;;6.88;;
27670;SDS011;15077;49.704;9.908;2022-12-11T11:15:59;11.57;;;7.38;;
27670;SDS011;15077;49.704;9.908;2022-12-11T11:18:36;16.23;;;9.32;;
27670;SDS011;15077;49.704;9.908;2022-12-11T11:21:05;28.95;;;19.35;;
27670;SDS011;15077;49.704;9.908;2022-12-11T11:23:40;30.77;;;17.35;;
27670;SDS011;15077;49.704;9.908;2022-12-11T11:26:06;24.05;;;13.95;;
27670;SDS011;15077;49.704;9.908;2022-12-11T11:28:34;17.17;;;10.43;;
27670;SDS011;15077;49.704;9.908;2022-12-11T11:31:08;14.18;;;8.82;;
27670;SDS011;15077;49.704;9.908;2022-12-11T11:33:44;13.60;;;7.43;;
27670;SDS011;15077;49.704;9.908;2022-12-11T11:36:32;17.25;;;10.48;;
27670;SDS011;15077;49.704;9.908;2022-12-11T11:39:20;24.15;;;16.13;;
27670;SDS011;15077;49.704;9.908;2022-12-11T11:42:15;19.20;;;12.07;;
27670;SDS011;15077;49.704;9.908;2022-12-11T11:47:51;23.45;;;16.02;;
27670;SDS011;15077;49.704;9.908;2022-12-11T11:50:32;20.92;;;15.52;;
27670;SDS011;15077;49.704;9.908;2022-12-11T11:53:11;20.67;;;13.52;;
27670;SDS011;15077;49.704;9.908;2022-12-11T11:55:57;18.45;;;11.32;;
27670;SDS011;15077;49.704;9.908;2022-12-11T12:01:20;62.63;;;38.55;;
27670;SDS011;15077;49.704;9.908;2022-12-11T12:03:46;44.10;;;27.25;;
27670;SDS011;15077;49.704;9.908;2022-12-11T12:11:52;26.00;;;17.45;;
27670;SDS011;15077;49.704;9.908;2022-12-11T12:18:37;18.25;;;10.75;;
27670;SDS011;15077;49.704;9.908;2022-12-11T12:24:02;14.57;;;8.80;;
27670;SDS011;15077;49.704;9.908;2022-12-11T12:26:46;15.52;;;10.50;;
27670;SDS011;15077;49.704;9.908;2022-12-11T12:35:40;19.60;;;10.73;;
27670;SDS011;15077;49.704;9.908;2022-12-11T12:38:32;11.90;;;7.45;;
27670;SDS011;15077;49.704;9.908;2022-12-11T12:41:35;13.88;;;8.02;;
27670;SDS011;15077;49.704;9.908;2022-12-11T12:44:43;13.95;;;8.40;;
27670;SDS011;15077;49.704;9.908;2022-12-11T12:47:32;14.07;;;8.43;;
27670;SDS011;15077;49.704;9.908;2022-12-11T12:50:00;12.45;;;7.75;;
27670;SDS011;15077;49.704;9.908;2022-12-11T12:52:30;15.77;;;9.60;;
27670;SDS011;15077;49.704;9.908;2022-12-11T12:55:15;14.30;;;8.47;;
27670;SDS011;15077;49.704;9.908;2022-12-11T12:57:52;14.57;;;8.32;;
27670;SDS011;15077;49.704;9.908;2022-12-11T13:03:01;13.50;;;7.30;;
27670;SDS011;15077;49.704;9.908;2022-12-11T13:06:03;12.43;;;7.85;;
27670;SDS011;15077;49.704;9.908;2022-12-11T13:08:38;11.88;;;8.02;;
27670;SDS011;15077;49.704;9.908;2022-12-11T13:11:12;14.77;;;9.45;;
27670;SDS011;15077;49.704;9.908;2022-12-11T13:14:04;15.65;;;9.90;;
27670;SDS011;15077;49.704;9.908;2022-12-11T13:16:38;20.88;;;12.02;;
27670;SDS011;15077;49.704;9.908;2022-12-11T13:21:57;15.55;;;9.00;;
27670;SDS011;15077;49.704;9.908;2022-12-11T13:24:56;14.82;;;9.45;;
27670;SDS011;15077;49.704;9.908;2022-12-11T13:27:41;13.48;;;7.75;;
27670;SDS011;15077;49.704;9.908;2022-12-11T13:32:43;17.70;;;10.75;;
27670;SDS011;15077;49.704;9.908;2022-12-11T13:35:19;15.98;;;10.10;;
27670;SDS011;15077;49.704;9.908;2022-12-11T13:37:45;14.63;;;9.35;;
27670;SDS011;15077;49.704;9.908;2022-12-11T13:40:17;16.42;;;9.82;;
27670;SDS011;15077;49.704;9.908;2022-12-11T13:42:51;14.95;;;9.02;;
27670;SDS011;15077;49.704;9.908;2022-12-11T13:47:57;13.18;;;8.15;;
27670;SDS011;15077;49.704;9.908;2022-12-11T13:50:28;15.00;;;8.23;;
27670;SDS011;15077;49.704;9.908;2022-12-11T13:52:59;12.77;;;8.32;;
27670;SDS011;15077;49.704;9.908;2022-12-11T13:55:31;18.42;;;10.60;;
27670;SDS011;15077;49.704;9.908;2022-12-11T14:00:26;12.43;;;7.57;;
27670;SDS011;15077;49.704;9.908;2022-12-11T14:02:56;12.27;;;8.48;;
27670;SDS011;15077;49.704;9.908;2022-12-11T14:05:28;16.88;;;9.70;;
27670;SDS011;15077;49.704;9.908;2022-12-11T14:07:55;20.38;;;13.05;;
27670;SDS011;15077;49.704;9.908;2022-12-11T14:10:26;21.35;;;11.98;;
27670;SDS011;15077;49.704;9.908;2022-12-11T14:12:58;18.85;;;10.90;;
27670;SDS011;15077;49.704;9.908;2022-12-11T14:15:32;18.00;;;10.93;;
27670;SDS011;15077;49.704;9.908;2022-12-11T14:18:00;17.27;;;11.77;;
27670;SDS011;15077;49.704;9.908;2022-12-11T14:20:29;17.27;;;10.93;;
27670;SDS011;15077;49.704;9.908;2022-12-11T14:23:12;14.82;;;9.25;;
27670;SDS011;15077;49.704;9.908;2022-12-11T14:25:55;17.65;;;9.68;;
27670;SDS011;15077;49.704;9.908;2022-12-11T14:28:23;16.52;;;9.65;;
27670;SDS011;15077;49.704;9.908;2022-12-11T14:30:53;19.50;;;10.55;;
27670;SDS011;15077;49.704;9.908;2022-12-11T14:33:26;17.85;;;10.23;;
27670;SDS011;15077;49.704;9.908;2022-12-11T14:35:57;17.85;;;11.45;;
27670;SDS011;15077;49.704;9.908;2022-12-11T14:38:26;17.98;;;9.80;;
27670;SDS011;15077;49.704;9.908;2022-12-11T14:41:04;16.65;;;9.75;;
27670;SDS011;15077;49.704;9.908;2022-12-11T14:43:47;15.68;;;9.23;;
27670;SDS011;15077;49.704;9.908;2022-12-11T14:46:25;14.65;;;9.13;;
27670;SDS011;15077;49.704;9.908;2022-12-11T14:49:19;16.13;;;10.10;;
27670;SDS011;15077;49.704;9.908;2022-12-11T14:52:04;13.73;;;7.85;;
27670;SDS011;15077;49.704;9.908;2022-12-11T14:54:40;18.80;;;10.93;;
27670;SDS011;15077;49.704;9.908;2022-12-11T14:57:15;21.40;;;11.52;;
27670;SDS011;15077;49.704;9.908;2022-12-11T14:59:47;20.38;;;10.65;;
27670;SDS011;15077;49.704;9.908;2022-12-11T15:02:21;12.52;;;7.97;;
27670;SDS011;15077;49.704;9.908;2022-12-11T15:07:54;16.63;;;9.32;;
27670;SDS011;15077;49.704;9.908;2022-12-11T15:10:30;16.08;;;10.05;;
27670;SDS011;15077;49.704;9.908;2022-12-11T15:13:21;18.17;;;10.85;;
27670;SDS011;15077;49.704;9.908;2022-12-11T15:15:48;16.67;;;9.60;;
27670;SDS011;15077;49.704;9.908;2022-12-11T15:18:32;15.85;;;9.38;;
27670;SDS011;15077;49.704;9.908;2022-12-11T15:21:03;21.48;;;11.07;;
27670;SDS011;15077;49.704;9.908;2022-12-11T15:23:36;16.80;;;10.02;;
27670;SDS011;15077;49.704;9.908;2022-12-11T15:26:20;19.52;;;10.98;;
27670;SDS011;15077;49.704;9.908;2022-12-11T15:34:44;23.80;;;13.60;;
27670;SDS011;15077;49.704;9.908;2022-12-11T15:39:45;24.73;;;14.73;;
27670;SDS011;15077;49.704;9.908;2022-12-11T15:42:12;21.48;;;12.27;;
27670;SDS011;15077;49.704;9.908;2022-12-11T15:44:49;20.05;;;11.30;;
27670;SDS011;15077;49.704;9.908;2022-12-11T15:47:18;22.50;;;12.15;;
27670;SDS011;15077;49.704;9.908;2022-12-11T15:49:54;18.42;;;10.25;;
27670;SDS011;15077;49.704;9.908;2022-12-11T15:52:45;23.23;;;13.27;;
27670;SDS011;15077;49.704;9.908;2022-12-11T15:55:12;15.35;;;9.55;;
27670;SDS011;15077;49.704;9.908;2022-12-11T15:57:39;16.23;;;9.63;;
27670;SDS011;15077;49.704;9.908;2022-12-11T16:00:14;23.23;;;11.48;;
27670;SDS011;15077;49.704;9.908;2022-12-11T16:02:43;18.25;;;10.48;;
27670;SDS011;15077;49.704;9.908;2022-12-11T16:05:09;21.02;;;11.48;;
27670;SDS011;15077;49.704;9.908;2022-12-11T16:07:36;18.08;;;10.07;;
27670;SDS011;15077;49.704;9.908;2022-12-11T16:10:02;17.02;;;9.75;;
27670;SDS011;15077;49.704;9.908;2022-12-11T16:12:30;15.38;;;9.75;;
27670;SDS011;15077;49.704;9.908;2022-12-11T16:14:56;14.55;;;8.30;;
27670;SDS011;15077;49.704;9.908;2022-12-11T16:17:22;14.25;;;7.85;;
27670;SDS011;15077;49.704;9.908;2022-12-11T16:19:48;16.80;;;8.75;;
27670;SDS011;15077;49.704;9.908;2022-12-11T16:22:14;15.82;;;8.63;;
27670;SDS011;15077;49.704;9.908;2022-12-11T16:24:40;13.52;;;7.82;;
27670;SDS011;15077;49.704;9.908;2022-12-11T16:27:06;15.80;;;8.73;;
27670;SDS011;15077;49.704;9.908;2022-12-11T16:29:36;14.13;;;8.60;;
27670;SDS011;15077;49.704;9.908;2022-12-11T16:32:05;22.25;;;9.70;;
27670;SDS011;15077;49.704;9.908;2022-12-11T16:34:32;20.65;;;11.43;;
27670;SDS011;15077;49.704;9.908;2022-12-11T16:37:00;16.73;;;9.00;;
27670;SDS011;15077;49.704;9.908;2022-12-11T16:39:26;16.85;;;9.68;;
27670;SDS011;15077;49.704;9.908;2022-12-11T16:41:52;15.57;;;9.07;;
27670;SDS011;15077;49.704;9.908;2022-12-11T16:44:19;20.27;;;9.75;;
27670;SDS011;15077;49.704;9.908;2022-12-11T16:46:47;18.58;;;11.00;;
27670;SDS011;15077;49.704;9.908;2022-12-11T16:49:13;16.95;;;10.75;;